Time;durP1;ratioP1;P1;durP2;ratioP2;P2;SDS_P1;SDS_P2;PMS_P1;PMS_P2;Temp;Humidity;BMP_temperature;BMP_pressure;BME280_temperature;BME280_humidity;BME280_pressure;Samples;Min_cycle;Max_cycle;Signal;HPM_P1;HPM_P2
2022/01/26 00:06:49;;;;;;;8.68;5.53;;;4.60;99.90;;;;;;5114402;27;20568;-72
2022/01/26 00:09:17;;;;;;;6.40;4.55;;;4.60;99.90;;;;;;5131951;27;20245;-71
2022/01/26 00:11:45;;;;;;;6.53;5.65;;;4.60;99.90;;;;;;5130252;27;20308;-71
2022/01/26 00:14:13;;;;;;;7.68;6.05;;;4.60;99.90;;;;;;5120395;27;20237;-71
2022/01/26 00:16:44;;;;;;;7.55;5.18;;;4.60;99.90;;;;;;5110135;28;20218;-73
2022/01/26 00:19:20;;;;;;;9.90;5.95;;;4.60;99.90;;;;;;5115280;27;20202;-72
2022/01/26 00:21:51;;;;;;;9.07;6.95;;;4.60;99.90;;;;;;5115460;27;20763;-72
2022/01/26 00:24:47;;;;;;;6.65;5.32;;;4.60;99.90;;;;;;5112816;27;20279;-71
2022/01/26 00:27:35;;;;;;;8.38;5.88;;;4.60;99.90;;;;;;5110139;28;20259;-72
2022/01/26 00:38:37;;;;;;;10.50;6.72;;;4.60;99.90;;;;;;5073137;27;20244;-71
2022/01/26 00:41:11;;;;;;;11.07;6.63;;;4.70;99.90;;;;;;5121549;27;20351;-71
2022/01/26 00:43:48;;;;;;;7.35;5.05;;;4.60;99.90;;;;;;5095435;28;20272;-71
2022/01/26 00:46:17;;;;;;;10.23;5.60;;;4.60;99.90;;;;;;5101615;27;20260;-71
2022/01/26 00:48:46;;;;;;;7.18;5.60;;;4.60;99.90;;;;;;5110576;28;20307;-71
2022/01/26 00:51:17;;;;;;;7.78;5.55;;;4.60;99.90;;;;;;5110576;27;20596;-71
2022/01/26 00:53:48;;;;;;;8.23;5.88;;;4.60;99.90;;;;;;5111131;28;20234;-72
2022/01/26 00:56:17;;;;;;;9.02;6.13;;;4.60;99.90;;;;;;5111476;27;20238;-72
2022/01/26 00:58:46;;;;;;;7.50;6.10;;;4.60;99.90;;;;;;5124010;27;20278;-72
2022/01/26 01:01:14;;;;;;;7.22;5.00;;;4.60;99.90;;;;;;5117780;27;20572;-71
2022/01/26 01:03:45;;;;;;;10.30;6.03;;;4.60;99.90;;;;;;5094753;28;20199;-71
2022/01/26 01:06:20;;;;;;;7.53;6.03;;;4.60;99.90;;;;;;5115045;27;20221;-72
2022/01/26 01:09:07;;;;;;;9.10;6.25;;;4.60;99.90;;;;;;5115192;27;20707;-71
2022/01/26 01:11:56;;;;;;;9.10;6.53;;;4.60;99.90;;;;;;5111071;27;20888;-73
2022/01/26 01:14:44;;;;;;;8.25;5.93;;;4.60;99.90;;;;;;5130393;27;20231;-71
2022/01/26 01:17:23;;;;;;;8.55;6.38;;;4.60;99.90;;;;;;5111945;28;20218;-72
2022/01/26 01:20:08;;;;;;;10.45;6.07;;;4.60;99.90;;;;;;5110790;28;20247;-72
2022/01/26 01:22:50;;;;;;;6.95;5.50;;;4.60;99.90;;;;;;5089376;28;20761;-73
2022/01/26 01:28:23;;;;;;;8.90;6.07;;;4.60;99.90;;;;;;5092304;28;20864;-71
2022/01/26 01:30:55;;;;;;;8.75;6.25;;;4.60;99.90;;;;;;5116482;28;20293;-70
2022/01/26 01:33:32;;;;;;;10.23;6.63;;;4.60;99.90;;;;;;5116336;28;20198;-72
2022/01/26 01:36:05;;;;;;;8.70;6.25;;;4.60;99.90;;;;;;5125576;28;20186;-70
2022/01/26 01:38:39;;;;;;;7.60;6.30;;;4.60;99.90;;;;;;5132464;27;20717;-71
2022/01/26 01:41:07;;;;;;;10.55;6.05;;;4.60;99.90;;;;;;5119119;27;20236;-71
2022/01/26 01:43:37;;;;;;;11.48;6.50;;;4.60;99.90;;;;;;5135392;27;20209;-72
2022/01/26 01:46:06;;;;;;;7.97;5.60;;;4.60;99.90;;;;;;5118468;27;20204;-72
2022/01/26 01:48:34;;;;;;;10.35;6.53;;;4.60;99.90;;;;;;5099188;28;20207;-71
2022/01/26 01:51:08;;;;;;;8.10;6.30;;;4.60;99.90;;;;;;5109712;27;20234;-71
2022/01/26 01:53:40;;;;;;;9.35;6.35;;;4.60;99.90;;;;;;5114772;28;20648;-72
2022/01/26 01:56:10;;;;;;;10.75;6.35;;;4.60;99.90;;;;;;5120093;27;20215;-71
2022/01/26 01:58:39;;;;;;;8.18;6.00;;;4.60;99.90;;;;;;5115369;27;20618;-72
2022/01/26 02:01:08;;;;;;;8.07;5.72;;;4.60;99.90;;;;;;5125635;27;20245;-71
2022/01/26 02:03:36;;;;;;;8.10;6.05;;;4.60;99.90;;;;;;5130544;27;20220;-70
2022/01/26 02:06:04;;;;;;;10.52;6.20;;;4.60;99.90;;;;;;5134141;27;20221;-71
2022/01/26 02:08:32;;;;;;;8.80;6.53;;;4.60;99.90;;;;;;5125364;27;20326;-70
2022/01/26 02:11:05;;;;;;;9.77;7.57;;;4.60;99.90;;;;;;5117225;27;20705;-71
2022/01/26 02:13:40;;;;;;;9.90;7.07;;;4.60;99.90;;;;;;5114585;27;20717;-71
2022/01/26 02:16:16;;;;;;;11.65;6.68;;;4.60;99.90;;;;;;5113478;28;20633;-72
2022/01/26 02:18:59;;;;;;;10.15;7.07;;;4.60;99.90;;;;;;5114325;27;20263;-72
2022/01/26 02:21:53;;;;;;;10.05;7.25;;;4.60;99.90;;;;;;5133374;27;20252;-71
2022/01/26 02:49:40;;;;;;;11.52;7.68;;;4.60;99.90;;;;;;5117824;27;20575;-71
2022/01/26 02:55:25;;;;;;;10.65;7.13;;;4.60;99.90;;;;;;5047805;28;20235;-71
2022/01/26 03:00:57;;;;;;;11.38;7.00;;;4.60;99.90;;;;;;5076963;27;20285;-72
2022/01/26 03:03:29;;;;;;;12.05;7.70;;;4.60;99.90;;;;;;5112872;27;20221;-72
2022/01/26 03:06:02;;;;;;;11.15;7.05;;;4.60;99.90;;;;;;5110719;27;20581;-71
2022/01/26 03:08:34;;;;;;;10.70;7.20;;;4.60;99.90;;;;;;5125908;27;20225;-71
2022/01/26 03:11:07;;;;;;;12.63;8.15;;;4.60;99.90;;;;;;5112270;28;20701;-72
2022/01/26 03:13:39;;;;;;;13.07;8.45;;;4.60;99.90;;;;;;5103544;28;20198;-71
2022/01/26 03:16:12;;;;;;;10.93;7.60;;;4.60;99.90;;;;;;5129007;27;20683;-71
2022/01/26 03:21:33;;;;;;;9.82;6.97;;;4.60;99.90;;;;;;5132687;27;20233;-71
2022/01/26 03:29:53;;;;;;;11.60;8.25;;;4.60;99.90;;;;;;5121259;27;20266;-71
2022/01/26 03:35:04;;;;;;;10.73;7.00;;;4.60;99.90;;;;;;5120774;27;20189;-71
2022/01/26 03:37:38;;;;;;;13.30;7.72;;;4.60;99.90;;;;;;5132028;27;20706;-71
2022/01/26 03:40:13;;;;;;;13.13;8.35;;;4.60;99.90;;;;;;5133305;27;20197;-70
2022/01/26 03:42:43;;;;;;;14.68;8.20;;;4.60;99.90;;;;;;5117708;27;20297;-72
2022/01/26 03:45:11;;;;;;;13.23;7.95;;;4.60;99.90;;;;;;5130825;27;20235;-70
2022/01/26 03:47:39;;;;;;;10.70;7.53;;;4.60;99.90;;;;;;5116402;27;20230;-72
2022/01/26 03:50:07;;;;;;;11.52;7.90;;;4.60;99.90;;;;;;5091872;28;20187;-71
2022/01/26 03:52:36;;;;;;;16.00;9.32;;;4.60;99.90;;;;;;5097960;27;20267;-71
2022/01/26 03:55:05;;;;;;;10.75;7.80;;;4.60;99.90;;;;;;5112625;27;20222;-71
2022/01/26 03:57:33;;;;;;;12.18;6.93;;;4.60;99.90;;;;;;5101530;28;20254;-72
2022/01/26 04:00:02;;;;;;;12.48;8.05;;;4.60;99.90;;;;;;5091715;28;20688;-72
2022/01/26 04:02:39;;;;;;;16.40;9.32;;;4.60;99.90;;;;;;5104785;27;20210;-71
2022/01/26 04:05:11;;;;;;;10.70;7.10;;;4.60;99.90;;;;;;5111768;28;20201;-71
2022/01/26 04:07:41;;;;;;;13.90;8.48;;;4.60;99.90;;;;;;5115955;27;20271;-71
2022/01/26 04:10:18;;;;;;;12.82;7.18;;;4.60;99.90;;;;;;5132342;27;20189;-72
2022/01/26 04:12:46;;;;;;;12.77;7.72;;;4.60;99.90;;;;;;5114557;27;20731;-71
2022/01/26 04:15:24;;;;;;;15.50;10.05;;;4.60;99.90;;;;;;5111656;28;20224;-72
2022/01/26 04:17:52;;;;;;;15.05;8.95;;;4.60;99.90;;;;;;5117974;27;20214;-71
2022/01/26 04:20:24;;;;;;;11.68;8.65;;;4.60;99.90;;;;;;5093735;28;20326;-71
2022/01/26 04:23:05;;;;;;;12.55;8.15;;;4.60;99.90;;;;;;5100394;27;20209;-73
2022/01/26 04:25:34;;;;;;;13.30;8.05;;;4.60;99.90;;;;;;5125734;27;20186;-71
2022/01/26 04:28:06;;;;;;;10.18;7.18;;;4.60;99.90;;;;;;5110770;28;20226;-71
2022/01/26 04:30:36;;;;;;;14.00;8.98;;;4.60;99.90;;;;;;5115553;27;20454;-71
2022/01/26 04:33:05;;;;;;;15.15;9.57;;;4.60;99.90;;;;;;5119551;27;20305;-71
2022/01/26 04:35:34;;;;;;;12.55;8.43;;;4.60;99.90;;;;;;5114799;27;20194;-70
2022/01/26 04:38:15;;;;;;;13.98;9.25;;;4.60;99.90;;;;;;5110629;28;20715;-71
2022/01/26 04:40:51;;;;;;;13.35;8.48;;;4.60;99.90;;;;;;5111099;27;20186;-71
2022/01/26 04:43:24;;;;;;;11.77;7.55;;;4.60;99.90;;;;;;5111728;27;20220;-72
2022/01/26 04:45:54;;;;;;;11.75;8.10;;;4.60;99.90;;;;;;5130927;27;20643;-71
2022/01/26 04:48:25;;;;;;;11.23;6.55;;;4.60;99.90;;;;;;5117312;27;20212;-72
2022/01/26 04:50:54;;;;;;;12.82;8.43;;;4.60;99.90;;;;;;5110735;28;20222;-73
2022/01/26 04:53:22;;;;;;;12.88;8.55;;;4.60;99.90;;;;;;5102459;27;20198;-72
2022/01/26 04:55:51;;;;;;;15.93;7.80;;;4.60;99.90;;;;;;5124552;27;20275;-71
2022/01/26 04:58:20;;;;;;;13.98;8.70;;;4.60;99.90;;;;;;5092689;28;20823;-72
2022/01/26 05:00:48;;;;;;;12.15;7.65;;;4.60;99.90;;;;;;5111020;28;20656;-71
2022/01/26 05:03:17;;;;;;;10.70;7.68;;;4.60;99.90;;;;;;5120230;27;20205;-71
2022/01/26 05:05:45;;;;;;;11.68;6.95;;;4.60;99.90;;;;;;5131274;27;20652;-71
2022/01/26 05:08:14;;;;;;;11.43;8.25;;;4.60;99.90;;;;;;5121269;27;20232;-71
2022/01/26 05:10:44;;;;;;;15.05;8.27;;;4.60;99.90;;;;;;5099980;28;20191;-72
2022/01/26 05:13:14;;;;;;;12.40;8.25;;;4.60;99.90;;;;;;5107945;27;20245;-71
2022/01/26 05:15:43;;;;;;;11.88;6.72;;;4.60;99.90;;;;;;5130416;27;20663;-71
2022/01/26 05:18:11;;;;;;;14.95;8.98;;;4.60;99.90;;;;;;5125532;27;20248;-71
2022/01/26 05:20:41;;;;;;;14.43;8.13;;;4.60;99.90;;;;;;5124187;28;20186;-71
2022/01/26 05:23:09;;;;;;;10.75;7.57;;;4.60;99.90;;;;;;5118325;28;20211;-71
2022/01/26 05:25:37;;;;;;;17.80;10.70;;;4.60;99.90;;;;;;5125498;28;20182;-71
2022/01/26 05:28:06;;;;;;;15.52;7.82;;;4.60;99.90;;;;;;5130649;28;20256;-71
2022/01/26 05:30:34;;;;;;;11.18;7.60;;;4.60;99.90;;;;;;5130567;28;20193;-71
2022/01/26 05:33:02;;;;;;;12.43;8.75;;;4.60;99.90;;;;;;5116434;28;20650;-71
2022/01/26 05:35:30;;;;;;;15.40;8.77;;;4.60;99.90;;;;;;5114373;28;20193;-71
2022/01/26 05:37:59;;;;;;;11.73;7.93;;;4.60;99.90;;;;;;5112275;28;20222;-71
2022/01/26 05:40:27;;;;;;;14.25;8.23;;;4.50;99.90;;;;;;5103767;28;20217;-71
2022/01/26 05:42:56;;;;;;;13.52;7.68;;;4.50;99.90;;;;;;5110401;28;20214;-72
2022/01/26 05:45:29;;;;;;;12.07;8.90;;;4.60;99.90;;;;;;5110956;28;20226;-71
2022/01/26 05:47:57;;;;;;;13.85;9.73;;;4.50;99.90;;;;;;5108531;28;20257;-71
2022/01/26 05:50:25;;;;;;;13.10;9.00;;;4.50;99.90;;;;;;5092219;28;20199;-71
2022/01/26 05:52:53;;;;;;;14.10;9.43;;;4.50;99.90;;;;;;5115822;28;20647;-71
2022/01/26 05:55:22;;;;;;;14.25;8.82;;;4.60;99.90;;;;;;5130373;28;20197;-70
2022/01/26 05:57:50;;;;;;;16.67;8.30;;;4.60;99.90;;;;;;5109174;28;20230;-71
2022/01/26 06:00:19;;;;;;;17.10;10.55;;;4.60;99.90;;;;;;5110420;28;20191;-73
2022/01/26 06:02:47;;;;;;;13.07;8.45;;;4.50;99.90;;;;;;5110512;28;20206;-71
2022/01/26 06:05:15;;;;;;;13.55;8.70;;;4.60;99.90;;;;;;5131041;28;20186;-72
2022/01/26 06:07:43;;;;;;;16.55;10.57;;;4.60;99.90;;;;;;5117524;28;20222;-71
2022/01/26 06:10:11;;;;;;;13.38;8.60;;;4.60;99.90;;;;;;5109958;28;20193;-71
2022/01/26 06:12:41;;;;;;;21.85;11.80;;;4.50;99.90;;;;;;5112481;28;20232;-71
2022/01/26 06:15:09;;;;;;;15.23;8.95;;;4.60;99.90;;;;;;5110198;28;20221;-71
2022/01/26 06:17:37;;;;;;;20.48;13.00;;;4.50;99.90;;;;;;5109241;28;20253;-72
2022/01/26 06:20:07;;;;;;;14.68;9.10;;;4.50;99.90;;;;;;5110399;28;20195;-72
2022/01/26 06:22:35;;;;;;;13.52;8.43;;;4.50;99.90;;;;;;5111779;28;20233;-72
2022/01/26 06:25:06;;;;;;;17.73;9.75;;;4.50;99.90;;;;;;5121729;27;20214;-72
2022/01/26 06:27:34;;;;;;;20.42;11.90;;;4.50;99.90;;;;;;5114415;27;20326;-73
2022/01/26 06:30:04;;;;;;;20.70;11.35;;;4.50;99.90;;;;;;5134591;27;20229;-71
2022/01/26 06:32:33;;;;;;;16.25;8.35;;;4.50;99.90;;;;;;5123149;27;20300;-71
2022/01/26 06:35:02;;;;;;;20.33;11.90;;;4.50;99.90;;;;;;5113485;28;20301;-71
2022/01/26 06:37:30;;;;;;;18.83;10.90;;;4.50;99.90;;;;;;5113084;28;20733;-71
2022/01/26 06:39:59;;;;;;;19.38;11.35;;;4.50;99.90;;;;;;5095339;28;20190;-71
2022/01/26 06:42:32;;;;;;;20.90;11.32;;;4.50;99.90;;;;;;5107200;27;20219;-70
2022/01/26 06:45:12;;;;;;;16.13;9.20;;;4.50;99.90;;;;;;5133833;27;20221;-72
2022/01/26 06:47:59;;;;;;;16.52;12.10;;;4.60;99.90;;;;;;5125431;27;20249;-71
2022/01/26 06:50:27;;;;;;;18.88;11.70;;;4.50;99.90;;;;;;5095459;28;20194;-71
2022/01/26 06:52:55;;;;;;;18.30;10.77;;;4.50;99.90;;;;;;5113718;27;20213;-71
2022/01/26 06:55:23;;;;;;;18.98;10.43;;;4.50;99.90;;;;;;5105356;28;20619;-71
2022/01/26 06:57:51;;;;;;;16.98;10.60;;;4.50;99.90;;;;;;5106855;27;20879;-71
2022/01/26 07:00:19;;;;;;;18.80;12.20;;;4.50;99.90;;;;;;5115378;27;20254;-71
2022/01/26 07:02:49;;;;;;;20.58;12.93;;;4.50;99.90;;;;;;5124012;27;20725;-71
2022/01/26 07:05:22;;;;;;;18.30;10.43;;;4.50;99.90;;;;;;5118024;27;20191;-71
2022/01/26 07:07:50;;;;;;;35.10;17.33;;;4.50;99.90;;;;;;5126331;27;20691;-71
2022/01/26 07:10:19;;;;;;;37.95;19.60;;;4.50;99.90;;;;;;5131077;27;20185;-70
2022/01/26 07:12:47;;;;;;;34.28;18.13;;;4.50;99.90;;;;;;5118051;27;20217;-72
2022/01/26 07:21:25;;;;;;;37.20;17.40;;;4.50;99.90;;;;;;5091760;28;20191;-71
2022/01/26 07:23:54;;;;;;;33.72;15.30;;;4.50;99.90;;;;;;5104625;27;20600;-72
2022/01/26 07:26:25;;;;;;;37.08;17.33;;;4.50;99.90;;;;;;5104628;28;20238;-71
2022/01/26 07:28:53;;;;;;;31.30;16.83;;;4.50;99.90;;;;;;5092180;28;20207;-71
2022/01/26 07:31:22;;;;;;;33.13;16.00;;;4.50;99.90;;;;;;5108464;27;20214;-71
2022/01/26 07:33:54;;;;;;;33.83;18.42;;;4.50;99.90;;;;;;5113429;27;20222;-71
2022/01/26 07:36:22;;;;;;;35.13;17.77;;;4.50;99.90;;;;;;5132695;27;20229;-71
2022/01/26 07:38:53;;;;;;;30.33;17.08;;;4.50;99.90;;;;;;5130166;27;20349;-71
2022/01/26 07:41:22;;;;;;;33.78;16.95;;;4.50;99.90;;;;;;5121101;27;20629;-71
2022/01/26 07:43:50;;;;;;;31.17;16.17;;;4.50;99.90;;;;;;5115875;27;20601;-71
2022/01/26 07:46:18;;;;;;;34.05;16.33;;;4.50;99.90;;;;;;5111471;28;20226;-71
2022/01/26 07:48:46;;;;;;;30.40;16.80;;;4.50;99.90;;;;;;5124405;27;20234;-72
2022/01/26 07:51:15;;;;;;;33.63;17.30;;;4.50;99.90;;;;;;5099656;28;20240;-70
2022/01/26 07:53:44;;;;;;;28.55;14.88;;;4.50;99.90;;;;;;5129441;27;20274;-71
2022/01/26 07:56:13;;;;;;;35.80;17.38;;;4.50;99.90;;;;;;5121299;27;20298;-71
2022/01/26 07:58:41;;;;;;;25.73;15.75;;;4.50;99.90;;;;;;5091622;28;20239;-73
2022/01/26 08:01:09;;;;;;;37.20;19.35;;;4.50;99.90;;;;;;5113805;27;20198;-71
2022/01/26 08:03:38;;;;;;;25.83;15.20;;;4.50;99.90;;;;;;5116756;27;20197;-72
2022/01/26 08:06:10;;;;;;;23.52;14.80;;;4.50;99.90;;;;;;5115123;27;20190;-72
2022/01/26 08:08:43;;;;;;;29.92;14.30;;;4.50;99.90;;;;;;5119657;27;20233;-71
2022/01/26 08:11:11;;;;;;;25.25;13.20;;;4.50;99.90;;;;;;5123590;27;20227;-71
2022/01/26 08:13:39;;;;;;;28.50;14.10;;;4.50;99.90;;;;;;5111912;27;20235;-71
2022/01/26 08:16:07;;;;;;;30.27;16.35;;;4.50;99.90;;;;;;5113432;27;20194;-71
2022/01/26 08:18:35;;;;;;;33.00;16.45;;;4.50;99.90;;;;;;5125055;27;20301;-71
2022/01/26 08:21:05;;;;;;;30.88;15.45;;;4.50;99.90;;;;;;5129508;27;20220;-72
2022/01/26 08:23:35;;;;;;;30.08;16.08;;;4.50;99.90;;;;;;5125753;27;20831;-72
2022/01/26 08:26:05;;;;;;;30.05;16.60;;;4.50;99.90;;;;;;5121845;27;20229;-71
2022/01/26 08:28:37;;;;;;;34.17;18.25;;;4.50;99.90;;;;;;5093996;28;20206;-71
2022/01/26 08:31:05;;;;;;;23.80;13.13;;;4.50;99.90;;;;;;5115070;27;20238;-71
2022/01/26 08:33:33;;;;;;;31.42;16.63;;;4.50;99.90;;;;;;5115744;27;20195;-71
2022/01/26 08:36:02;;;;;;;28.60;14.95;;;4.50;99.90;;;;;;5114152;27;20229;-71
2022/01/26 08:38:30;;;;;;;43.05;18.90;;;4.50;99.90;;;;;;5125541;27;20249;-71
2022/01/26 08:40:58;;;;;;;40.28;18.65;;;4.50;99.90;;;;;;5101844;28;20688;-71
2022/01/26 08:43:27;;;;;;;30.52;14.40;;;4.50;99.90;;;;;;5086641;28;20652;-70
2022/01/26 08:45:55;;;;;;;33.53;16.42;;;4.50;99.90;;;;;;5113389;27;20236;-71
2022/01/26 08:48:25;;;;;;;33.63;15.95;;;4.50;99.90;;;;;;5097282;28;20904;-71
2022/01/26 08:50:53;;;;;;;34.17;16.60;;;4.50;99.90;;;;;;5090140;28;20671;-71
2022/01/26 08:53:23;;;;;;;30.15;16.73;;;4.50;99.90;;;;;;5097486;27;20258;-71
2022/01/26 08:55:51;;;;;;;25.60;15.77;;;4.50;99.90;;;;;;5129737;27;20296;-72
2022/01/26 08:58:19;;;;;;;27.80;15.38;;;4.50;99.90;;;;;;5111069;27;20226;-71
2022/01/26 09:00:49;;;;;;;29.60;14.52;;;4.50;99.90;;;;;;5117074;27;20585;-71
2022/01/26 09:03:18;;;;;;;29.30;15.88;;;4.50;99.90;;;;;;5110075;28;20910;-71
2022/01/26 09:05:46;;;;;;;28.90;15.13;;;4.50;99.90;;;;;;5116990;27;20182;-70
2022/01/26 09:08:17;;;;;;;28.17;14.38;;;4.50;99.90;;;;;;5117602;27;20304;-72
2022/01/26 09:10:45;;;;;;;30.80;14.80;;;4.50;99.90;;;;;;5120509;27;20194;-72
2022/01/26 09:13:13;;;;;;;25.35;14.50;;;4.50;99.90;;;;;;5113369;28;20259;-72
2022/01/26 09:15:42;;;;;;;30.90;14.63;;;4.50;99.90;;;;;;5123779;27;20259;-72
2022/01/26 09:18:17;;;;;;;35.33;17.70;;;4.50;99.90;;;;;;5100839;27;20226;-71
2022/01/26 09:20:45;;;;;;;36.95;16.92;;;4.50;99.90;;;;;;5103313;28;20269;-71
2022/01/26 09:23:13;;;;;;;28.45;15.73;;;4.50;99.90;;;;;;5128845;28;20242;-73
2022/01/26 09:25:41;;;;;;;34.38;16.80;;;4.50;99.90;;;;;;5106060;28;20180;-71
2022/01/26 09:28:10;;;;;;;26.42;13.70;;;4.50;99.90;;;;;;5094452;28;20222;-72
2022/01/26 09:30:38;;;;;;;27.88;15.20;;;4.50;99.90;;;;;;5122543;28;20186;-71
2022/01/26 09:33:06;;;;;;;29.95;15.00;;;4.50;99.90;;;;;;5118960;28;20588;-72
2022/01/26 09:35:35;;;;;;;26.33;14.55;;;4.50;99.90;;;;;;5112440;28;20249;-72
2022/01/26 09:38:03;;;;;;;28.90;13.95;;;4.50;99.90;;;;;;5126163;28;20706;-71
2022/01/26 09:40:31;;;;;;;33.65;17.00;;;4.50;99.90;;;;;;5114785;28;20265;-71
2022/01/26 09:43:00;;;;;;;29.40;17.80;;;4.50;99.90;;;;;;5118969;28;20218;-71
2022/01/26 09:45:34;;;;;;;23.65;12.15;;;4.50;99.90;;;;;;5119930;28;20276;-72
2022/01/26 09:48:02;;;;;;;36.40;15.73;;;4.50;99.90;;;;;;5105221;28;20730;-72
2022/01/26 09:50:42;;;;;;;27.25;14.27;;;4.50;99.90;;;;;;5126910;28;20189;-72
2022/01/26 09:53:12;;;;;;;30.80;15.05;;;4.50;99.90;;;;;;5129827;28;20267;-72
2022/01/26 09:55:42;;;;;;;29.08;14.93;;;4.50;99.90;;;;;;5120988;28;20245;-71
2022/01/26 09:58:11;;;;;;;29.45;14.27;;;4.50;99.90;;;;;;5121420;28;20228;-72
2022/01/26 10:00:39;;;;;;;30.65;16.30;;;4.50;99.90;;;;;;5121845;27;20195;-70
2022/01/26 10:03:07;;;;;;;26.33;14.50;;;4.50;99.90;;;;;;5115299;27;20221;-70
2022/01/26 10:05:43;;;;;;;27.80;14.70;;;4.40;99.90;;;;;;5115268;27;20227;-71
2022/01/26 10:08:25;;;;;;;32.85;15.90;;;4.50;99.90;;;;;;5120134;27;20225;-72
2022/01/26 10:17:18;;;;;;;27.92;15.27;;;4.40;99.90;;;;;;5128015;27;20246;-72
2022/01/26 10:19:42;;;;;;;22.92;13.63;;;4.40;99.90;;;;;;5109020;27;20190;-70
2022/01/26 10:22:11;;;;;;;27.98;13.80;;;4.50;99.90;;;;;;5123286;27;20238;-71
2022/01/26 10:24:39;;;;;;;30.33;15.40;;;4.50;99.90;;;;;;5115945;27;20218;-72
2022/01/26 10:27:08;;;;;;;27.63;14.07;;;4.40;99.90;;;;;;5121806;27;20252;-71
2022/01/26 10:29:36;;;;;;;25.88;13.43;;;4.40;99.90;;;;;;5106668;28;20245;-71
2022/01/26 10:32:12;;;;;;;25.83;14.27;;;4.50;99.90;;;;;;5112270;27;20744;-71
2022/01/26 10:34:40;;;;;;;33.42;15.00;;;4.50;99.90;;;;;;5119604;27;20210;-72
2022/01/26 10:37:09;;;;;;;28.40;16.48;;;4.50;99.90;;;;;;5121067;27;20249;-72
2022/01/26 10:39:44;;;;;;;31.60;13.43;;;4.50;99.90;;;;;;5114838;27;20272;-71
2022/01/26 10:42:19;;;;;;;26.33;14.00;;;4.40;99.90;;;;;;5111229;27;20233;-71
2022/01/26 10:44:54;;;;;;;24.13;13.18;;;4.40;99.90;;;;;;5126036;27;20184;-72
2022/01/26 10:47:27;;;;;;;28.70;15.85;;;4.40;99.90;;;;;;5127201;27;20206;-71
2022/01/26 10:50:08;;;;;;;35.03;13.88;;;4.40;99.90;;;;;;5113695;28;20191;-72
2022/01/26 10:52:38;;;;;;;29.65;14.05;;;4.40;99.90;;;;;;5129548;27;20559;-72
2022/01/26 10:55:09;;;;;;;24.02;13.20;;;4.40;99.90;;;;;;5113064;28;20190;-72
2022/01/26 10:57:37;;;;;;;25.92;13.68;;;4.50;99.90;;;;;;5116208;27;20279;-71
2022/01/26 11:00:07;;;;;;;21.40;13.10;;;4.50;99.90;;;;;;5106845;27;20182;-71
2022/01/26 11:02:37;;;;;;;27.27;13.05;;;4.50;99.90;;;;;;5101525;28;20249;-71
2022/01/26 11:05:06;;;;;;;25.45;12.95;;;4.40;99.90;;;;;;5124962;27;20194;-72
2022/01/26 11:07:37;;;;;;;23.38;11.82;;;4.50;99.90;;;;;;5112774;27;20241;-71
2022/01/26 11:10:09;;;;;;;26.10;13.65;;;4.40;99.90;;;;;;5104918;28;20597;-71
2022/01/26 11:12:40;;;;;;;22.55;12.57;;;4.40;99.90;;;;;;5112502;27;20214;-71
2022/01/26 11:15:10;;;;;;;22.58;12.85;;;4.40;99.90;;;;;;5123882;27;20199;-71
2022/01/26 11:17:42;;;;;;;24.52;12.70;;;4.50;99.90;;;;;;5093887;27;20241;-73
2022/01/26 11:20:19;;;;;;;20.65;12.25;;;4.40;99.90;;;;;;5132936;27;20262;-71
2022/01/26 11:22:53;;;;;;;21.02;12.27;;;4.40;99.90;;;;;;5117094;27;20701;-71
2022/01/26 11:25:24;;;;;;;22.90;12.82;;;4.50;99.90;;;;;;5099672;28;20229;-71
2022/01/26 11:27:54;;;;;;;22.75;11.75;;;4.50;99.90;;;;;;5119809;27;20302;-71
2022/01/26 11:30:26;;;;;;;18.70;10.43;;;4.50;99.90;;;;;;5124009;27;20214;-72
2022/01/26 11:32:57;;;;;;;19.95;11.90;;;4.50;99.90;;;;;;5113856;27;20275;-70
2022/01/26 11:35:29;;;;;;;18.17;12.35;;;4.50;99.90;;;;;;5125034;27;20205;-71
2022/01/26 11:38:07;;;;;;;20.45;10.75;;;4.50;99.90;;;;;;5114913;27;20249;-72
2022/01/26 11:46:32;;;;;;;20.42;12.13;;;4.50;99.90;;;;;;5103309;27;20229;-71
2022/01/26 11:49:05;;;;;;;20.27;11.68;;;4.50;99.90;;;;;;5093838;28;20285;-72
2022/01/26 11:51:44;;;;;;;21.30;11.55;;;4.40;99.90;;;;;;5120912;27;20214;-72
2022/01/26 11:54:17;;;;;;;20.90;12.07;;;4.50;99.90;;;;;;5125734;27;20182;-71
2022/01/26 11:56:58;;;;;;;20.70;11.38;;;4.50;99.90;;;;;;5117828;27;20279;-71
2022/01/26 11:59:28;;;;;;;17.02;11.10;;;4.40;99.90;;;;;;5114717;27;20202;-71
2022/01/26 12:02:01;;;;;;;21.88;12.48;;;4.50;99.90;;;;;;5122588;27;20265;-71
2022/01/26 12:04:32;;;;;;;21.13;13.00;;;4.50;99.90;;;;;;5091666;28;20203;-71
2022/01/26 12:07:11;;;;;;;23.20;11.93;;;4.40;99.90;;;;;;5109928;27;20275;-71
2022/01/26 12:09:41;;;;;;;19.85;11.20;;;4.50;99.90;;;;;;5132154;27;20728;-72
2022/01/26 12:12:17;;;;;;;26.85;12.02;;;4.50;99.90;;;;;;5112762;27;20223;-71
2022/01/26 12:14:55;;;;;;;21.42;12.25;;;4.50;99.90;;;;;;5124442;27;20198;-72
2022/01/26 12:17:28;;;;;;;23.50;12.50;;;4.40;99.90;;;;;;5125987;27;20271;-71
2022/01/26 12:31:58;;;;;;;20.17;10.63;;;4.50;99.90;;;;;;5124177;27;20193;-71
2022/01/26 12:34:44;;;;;;;18.55;12.35;;;4.40;99.90;;;;;;5116042;27;20627;-70
2022/01/26 12:37:18;;;;;;;21.00;10.80;;;4.40;99.90;;;;;;5090493;28;20227;-70
2022/01/26 12:42:42;;;;;;;23.30;11.32;;;4.50;99.90;;;;;;5064442;28;20268;-71
2022/01/26 12:45:12;;;;;;;21.55;12.80;;;4.40;99.90;;;;;;5110989;27;20598;-71
2022/01/26 12:47:41;;;;;;;24.48;13.75;;;4.40;99.90;;;;;;5119358;27;20222;-71
2022/01/26 12:50:09;;;;;;;17.08;10.85;;;4.50;99.90;;;;;;5111456;28;20225;-71
2022/01/26 12:52:38;;;;;;;17.50;11.32;;;4.40;99.90;;;;;;5110586;27;20249;-71
2022/01/26 12:55:06;;;;;;;24.20;12.50;;;4.50;99.90;;;;;;5110811;28;20205;-71
2022/01/26 12:57:43;;;;;;;24.45;12.98;;;4.50;99.90;;;;;;5109951;28;20249;-71
2022/01/26 13:00:14;;;;;;;23.17;11.82;;;4.50;99.90;;;;;;5104415;28;20221;-71
2022/01/26 13:02:42;;;;;;;27.20;12.63;;;4.40;99.90;;;;;;5102427;28;20250;-71
2022/01/26 13:05:12;;;;;;;22.38;12.88;;;4.40;99.90;;;;;;5103865;27;20239;-71
2022/01/26 13:07:40;;;;;;;25.60;13.15;;;4.50;99.90;;;;;;5126792;27;20231;-72
2022/01/26 13:10:15;;;;;;;18.92;12.00;;;4.40;99.90;;;;;;5114465;27;20274;-72
2022/01/26 13:12:44;;;;;;;19.10;11.15;;;4.40;99.90;;;;;;5100335;28;20239;-71
2022/01/26 13:15:20;;;;;;;24.98;13.20;;;4.40;99.90;;;;;;5110646;28;20190;-71
2022/01/26 13:17:53;;;;;;;23.13;12.27;;;4.40;99.90;;;;;;5105290;28;20241;-71
2022/01/26 13:20:40;;;;;;;23.13;11.70;;;4.40;99.90;;;;;;5131637;28;20238;-72
2022/01/26 13:23:22;;;;;;;19.63;10.23;;;4.50;99.90;;;;;;5114374;28;20249;-72
2022/01/26 13:26:02;;;;;;;21.10;11.70;;;4.40;99.90;;;;;;5113417;28;20239;-71
2022/01/26 13:28:43;;;;;;;22.00;13.45;;;4.40;99.90;;;;;;5100358;28;20222;-70
2022/01/26 13:31:45;;;;;;;23.65;11.98;;;4.40;99.90;;;;;;5111873;28;20672;-71
2022/01/26 13:37:14;;;;;;;22.70;12.25;;;4.40;99.90;;;;;;5093872;28;20276;-72
2022/01/26 13:39:53;;;;;;;19.33;12.30;;;4.40;99.90;;;;;;5100701;27;20182;-71
2022/01/26 13:48:16;;;;;;;23.10;11.30;;;4.40;99.90;;;;;;5130979;27;20266;-73
2022/01/26 13:50:50;;;;;;;21.52;11.90;;;4.40;99.90;;;;;;5134191;27;20280;-71
2022/01/26 13:53:21;;;;;;;21.50;12.38;;;4.40;99.90;;;;;;5121733;27;20267;-72
2022/01/26 13:58:55;;;;;;;20.50;11.43;;;4.40;99.90;;;;;;5101073;27;20250;-71
2022/01/26 14:01:23;;;;;;;22.50;11.77;;;4.40;99.90;;;;;;5114012;27;21017;-71
2022/01/26 14:03:57;;;;;;;26.90;12.95;;;4.40;99.90;;;;;;5115054;27;20255;-71
2022/01/26 14:06:25;;;;;;;21.30;12.90;;;4.40;99.90;;;;;;5113937;28;20225;-71
2022/01/26 14:08:53;;;;;;;25.08;11.52;;;4.40;99.90;;;;;;5095981;28;20195;-67
2022/01/26 14:11:21;;;;;;;27.55;13.52;;;4.40;99.90;;;;;;5083147;28;20214;-66
2022/01/26 14:13:52;;;;;;;22.67;12.45;;;4.40;99.90;;;;;;5093623;28;20214;-66
2022/01/26 14:16:22;;;;;;;21.08;13.80;;;4.40;99.90;;;;;;5119574;27;20245;-67
2022/01/26 14:19:07;;;;;;;22.30;11.80;;;4.40;99.90;;;;;;5099430;27;20242;-67
2022/01/26 14:22:06;;;;;;;18.85;11.25;;;4.40;99.90;;;;;;5123623;27;20217;-66
2022/01/26 14:24:50;;;;;;;20.80;11.60;;;4.40;99.90;;;;;;5130131;27;20711;-66
2022/01/26 14:27:20;;;;;;;34.85;19.25;;;4.40;99.90;;;;;;5122892;27;20445;-67
2022/01/26 14:30:04;;;;;;;31.27;17.40;;;4.40;99.90;;;;;;5128877;27;20766;-67
2022/01/26 14:35:41;;;;;;;32.38;14.00;;;4.40;99.90;;;;;;5122842;27;20278;-67
2022/01/26 15:01:07;;;;;;;26.17;13.70;;;4.40;99.90;;;;;;5104203;28;20233;-66
2022/01/26 15:09:41;;;;;;;28.27;13.93;;;4.40;99.90;;;;;;5081132;28;20267;-66
2022/01/26 15:40:46;;;;;;;31.27;14.38;;;4.40;99.90;;;;;;5126426;27;20230;-66
2022/01/26 15:43:37;;;;;;;23.88;13.68;;;4.40;99.90;;;;;;5118330;27;20238;-67
2022/01/26 15:51:52;;;;;;;25.75;13.23;;;4.40;99.90;;;;;;5106861;27;20305;-67
2022/01/26 16:05:58;;;;;;;22.75;13.65;;;4.40;99.90;;;;;;5122417;27;20644;-66
2022/01/26 16:08:34;;;;;;;23.98;14.70;;;4.40;99.90;;;;;;5111986;28;20218;-66